Time;durP1;ratioP1;P1;durP2;ratioP2;P2;SDS_P1;SDS_P2;PMS_P1;PMS_P2;Temp;Humidity;BMP_temperature;BMP_pressure;BME280_temperature;BME280_humidity;BME280_pressure;Samples;Min_cycle;Max_cycle;Signal;HPM_P1;HPM_P2
2023/12/07 00:01:19;;;;;;;32.25;14.88;;;;;;;;;;5771884;28;20051;-80
2023/12/07 00:04:10;;;;;;;29.90;13.63;;;;;;;;;;5754581;28;20105;-80
2023/12/07 00:07:01;;;;;;;27.23;13.10;;;;;;;;;;5770202;28;20114;-80
2023/12/07 00:09:51;;;;;;;24.75;10.40;;;;;;;;;;5778991;28;20051;-80
2023/12/07 00:12:42;;;;;;;25.40;11.60;;;;;;;;;;5786368;28;20043;-80
2023/12/07 00:15:34;;;;;;;23.88;10.73;;;;;;;;;;5771250;28;20043;-80
2023/12/07 00:18:24;;;;;;;19.60;9.48;;;;;;;;;;5770034;28;20061;-80
2023/12/07 00:21:15;;;;;;;26.02;11.00;;;;;;;;;;5770024;28;20089;-80
2023/12/07 00:24:06;;;;;;;29.52;10.30;;;;;;;;;;5770087;28;20067;-80
2023/12/07 00:26:57;;;;;;;18.95;10.00;;;;;;;;;;5770476;28;20047;-80
2023/12/07 00:29:48;;;;;;;24.10;10.98;;;;;;;;;;5771302;28;20163;-80
2023/12/07 00:32:43;;;;;;;27.65;12.23;;;;;;;;;;5769971;28;20043;-80
2023/12/07 00:35:33;;;;;;;33.00;12.90;;;;;;;;;;5770028;28;20047;-80
2023/12/07 00:38:24;;;;;;;32.45;10.98;;;;;;;;;;5771151;28;20137;-80
2023/12/07 00:41:15;;;;;;;32.05;10.85;;;;;;;;;;5771295;28;20386;-80
2023/12/07 00:44:06;;;;;;;28.13;11.43;;;;;;;;;;5769867;28;20404;-80
2023/12/07 00:46:56;;;;;;;33.95;9.38;;;;;;;;;;5770392;28;20043;-80
2023/12/07 00:49:47;;;;;;;25.23;12.07;;;;;;;;;;5770020;28;20043;-80
2023/12/07 00:52:38;;;;;;;28.65;10.15;;;;;;;;;;5754045;28;20057;-80
2023/12/07 00:55:29;;;;;;;29.40;11.10;;;;;;;;;;5770791;28;20076;-81
2023/12/07 00:58:20;;;;;;;30.98;10.93;;;;;;;;;;5771016;28;20054;-80
2023/12/07 01:01:11;;;;;;;22.55;10.73;;;;;;;;;;5769857;28;20055;-80
2023/12/07 01:04:02;;;;;;;29.73;10.18;;;;;;;;;;5766735;28;20481;-80
2023/12/07 01:06:53;;;;;;;45.15;13.75;;;;;;;;;;5767437;28;20059;-80
2023/12/07 01:09:44;;;;;;;25.08;8.68;;;;;;;;;;5767077;28;20119;-80
2023/12/07 01:12:35;;;;;;;30.42;9.88;;;;;;;;;;5752443;28;20062;-80
2023/12/07 01:15:27;;;;;;;22.95;9.30;;;;;;;;;;5766834;28;20048;-81
2023/12/07 01:18:17;;;;;;;28.30;10.50;;;;;;;;;;5752337;28;20063;-80
2023/12/07 01:21:08;;;;;;;36.17;12.57;;;;;;;;;;5750987;28;20051;-81
2023/12/07 01:23:59;;;;;;;24.85;11.60;;;;;;;;;;5752740;28;20122;-80
2023/12/07 01:27:05;;;;;;;21.60;10.55;;;;;;;;;;5746335;28;20044;-80
2023/12/07 01:29:55;;;;;;;27.48;10.68;;;;;;;;;;5766875;28;20051;-80
2023/12/07 01:32:46;;;;;;;23.33;10.95;;;;;;;;;;5751031;28;20046;-80
2023/12/07 01:35:37;;;;;;;23.40;12.35;;;;;;;;;;5766574;28;20066;-80
2023/12/07 01:38:28;;;;;;;26.33;10.00;;;;;;;;;;5750611;28;20051;-80
2023/12/07 01:41:19;;;;;;;22.65;10.45;;;;;;;;;;5752085;28;20398;-80
2023/12/07 01:44:09;;;;;;;23.35;10.13;;;;;;;;;;5751899;28;20053;-80
2023/12/07 01:47:01;;;;;;;40.92;13.38;;;;;;;;;;5766806;28;20051;-80
2023/12/07 01:49:53;;;;;;;25.88;8.45;;;;;;;;;;5750744;29;20066;-80
2023/12/07 01:52:47;;;;;;;19.02;8.05;;;;;;;;;;5750319;28;20134;-81
2023/12/07 01:55:39;;;;;;;22.83;9.27;;;;;;;;;;5765855;28;20048;-80
2023/12/07 01:58:31;;;;;;;15.63;9.65;;;;;;;;;;5765943;28;20054;-80
2023/12/07 02:01:22;;;;;;;24.38;9.60;;;;;;;;;;5766032;28;20502;-80
2023/12/07 02:04:14;;;;;;;25.15;10.68;;;;;;;;;;5751422;28;20052;-80
2023/12/07 02:07:05;;;;;;;23.92;9.18;;;;;;;;;;5766227;28;20516;-80
2023/12/07 02:09:58;;;;;;;30.55;12.35;;;;;;;;;;5766092;28;20179;-80
2023/12/07 02:12:49;;;;;;;21.65;10.55;;;;;;;;;;5765913;28;20040;-80
2023/12/07 02:15:40;;;;;;;22.13;10.93;;;;;;;;;;5765376;28;20047;-80
2023/12/07 02:19:11;;;;;;;25.58;11.73;;;;;;;;;;5765748;28;20074;-80
2023/12/07 02:22:12;;;;;;;24.48;10.40;;;;;;;;;;5751935;28;20058;-80
2023/12/07 02:25:09;;;;;;;24.05;9.48;;;;;;;;;;5751105;28;20051;-79
2023/12/07 02:28:00;;;;;;;31.23;8.98;;;;;;;;;;5751281;28;20046;-80
2023/12/07 02:30:50;;;;;;;16.27;6.50;;;;;;;;;;5765738;28;20059;-80
2023/12/07 02:33:41;;;;;;;22.90;9.70;;;;;;;;;;5765328;28;20052;-80
2023/12/07 02:36:35;;;;;;;22.85;11.90;;;;;;;;;;5765303;28;20094;-80
2023/12/07 02:39:26;;;;;;;27.08;11.02;;;;;;;;;;5765352;28;20187;-80
2023/12/07 02:42:17;;;;;;;18.48;9.15;;;;;;;;;;5750737;28;20058;-81
2023/12/07 02:45:10;;;;;;;17.10;8.95;;;;;;;;;;5765332;28;20477;-80
2023/12/07 02:48:01;;;;;;;24.27;9.18;;;;;;;;;;5765108;28;20083;-80
2023/12/07 02:50:52;;;;;;;22.27;8.38;;;;;;;;;;5765506;28;20055;-80
2023/12/07 02:53:43;;;;;;;12.70;7.90;;;;;;;;;;5765008;28;20047;-81
2023/12/07 02:56:33;;;;;;;13.60;7.22;;;;;;;;;;5765096;28;20386;-80
2023/12/07 02:59:24;;;;;;;20.15;8.07;;;;;;;;;;5749005;28;20039;-80
2023/12/07 03:02:15;;;;;;;17.35;8.50;;;;;;;;;;5765175;28;20056;-81
2023/12/07 03:05:07;;;;;;;19.60;7.43;;;;;;;;;;5764818;28;20056;-80
2023/12/07 03:07:58;;;;;;;16.52;7.57;;;;;;;;;;5749396;29;20044;-80
2023/12/07 03:10:48;;;;;;;26.42;8.80;;;;;;;;;;5764681;28;20413;-80
2023/12/07 03:13:39;;;;;;;18.45;9.18;;;;;;;;;;5750320;28;20047;-80
2023/12/07 03:16:30;;;;;;;23.55;7.97;;;;;;;;;;5750034;28;20051;-80
2023/12/07 03:19:21;;;;;;;13.07;7.30;;;;;;;;;;5764363;28;20043;-80
2023/12/07 03:22:13;;;;;;;19.38;7.95;;;;;;;;;;5750169;28;20047;-80
2023/12/07 03:25:04;;;;;;;14.60;8.43;;;;;;;;;;5764616;28;20442;-80
2023/12/07 03:27:55;;;;;;;22.42;7.32;;;;;;;;;;5764657;28;20052;-80
2023/12/07 03:30:46;;;;;;;21.00;9.93;;;;;;;;;;5764716;28;20050;-80
2023/12/07 03:33:38;;;;;;;15.55;7.38;;;;;;;;;;5750285;28;20051;-80
2023/12/07 03:36:29;;;;;;;19.48;8.75;;;;;;;;;;5748711;28;20047;-80
2023/12/07 03:39:22;;;;;;;11.40;6.85;;;;;;;;;;5748892;28;20050;-80
2023/12/07 03:42:13;;;;;;;15.85;6.85;;;;;;;;;;5764537;28;20051;-80
2023/12/07 03:45:24;;;;;;;13.80;7.90;;;;;;;;;;5749995;28;20122;-80
2023/12/07 03:48:15;;;;;;;30.90;10.63;;;;;;;;;;5764428;28;20138;-80
2023/12/07 03:51:06;;;;;;;18.73;8.82;;;;;;;;;;5749983;28;20059;-80
2023/12/07 03:53:57;;;;;;;13.95;6.13;;;;;;;;;;5750227;28;20044;-80
2023/12/07 03:56:48;;;;;;;27.63;9.80;;;;;;;;;;5764504;28;20055;-80
2023/12/07 03:59:39;;;;;;;17.17;8.48;;;;;;;;;;5764381;28;20494;-80
2023/12/07 04:02:33;;;;;;;25.65;9.77;;;;;;;;;;5750414;28;20056;-80
2023/12/07 04:05:24;;;;;;;22.65;9.95;;;;;;;;;;5764913;28;20044;-80
2023/12/07 04:08:15;;;;;;;12.25;6.95;;;;;;;;;;5764938;28;20059;-80
2023/12/07 04:11:05;;;;;;;23.25;6.55;;;;;;;;;;5749253;28;20089;-80
2023/12/07 04:13:56;;;;;;;17.60;7.38;;;;;;;;;;5765688;28;20044;-80
2023/12/07 04:16:47;;;;;;;17.38;8.77;;;;;;;;;;5764858;28;20055;-80
2023/12/07 04:19:38;;;;;;;22.42;11.43;;;;;;;;;;5765081;28;20059;-80
2023/12/07 04:22:29;;;;;;;34.20;11.25;;;;;;;;;;5765099;28;20063;-80
2023/12/07 04:25:20;;;;;;;20.88;11.55;;;;;;;;;;5765083;28;20434;-80
2023/12/07 04:28:11;;;;;;;24.95;11.95;;;;;;;;;;5765174;28;20126;-80
2023/12/07 04:31:01;;;;;;;25.45;13.27;;;;;;;;;;5764682;28;20055;-81
2023/12/07 04:33:52;;;;;;;30.20;15.77;;;;;;;;;;5750743;28;20048;-80
2023/12/07 04:36:43;;;;;;;33.22;14.55;;;;;;;;;;5749035;28;20044;-80
2023/12/07 04:39:36;;;;;;;38.47;12.38;;;;;;;;;;5767706;28;20047;-80
2023/12/07 04:42:27;;;;;;;24.13;12.05;;;;;;;;;;5769769;28;20047;-80
2023/12/07 04:45:17;;;;;;;20.80;8.68;;;;;;;;;;5769483;28;20087;-80
2023/12/07 04:48:08;;;;;;;21.52;10.85;;;;;;;;;;5754748;28;20134;-80
2023/12/07 04:50:59;;;;;;;20.83;9.60;;;;;;;;;;5769522;28;20099;-80
2023/12/07 04:53:50;;;;;;;20.17;10.60;;;;;;;;;;5753540;28;20047;-81
2023/12/07 04:56:42;;;;;;;25.15;9.05;;;;;;;;;;5754315;28;20047;-80
2023/12/07 04:59:32;;;;;;;22.15;9.38;;;;;;;;;;5769155;28;20050;-80
2023/12/07 05:02:27;;;;;;;20.88;9.73;;;;;;;;;;5770821;28;20043;-81
2023/12/07 05:05:18;;;;;;;23.20;8.82;;;;;;;;;;5774235;28;20060;-81
2023/12/07 05:08:09;;;;;;;13.65;9.52;;;;;;;;;;5759549;28;20426;-80
2023/12/07 05:11:00;;;;;;;21.33;12.73;;;;;;;;;;5775380;28;20052;-81
2023/12/07 05:13:51;;;;;;;30.42;12.00;;;;;;;;;;5760478;28;20055;-80
2023/12/07 05:16:42;;;;;;;27.23;13.60;;;;;;;;;;5773570;28;20111;-80
2023/12/07 05:19:33;;;;;;;13.50;8.73;;;;;;;;;;5751866;28;20055;-80
2023/12/07 05:22:24;;;;;;;24.73;9.35;;;;;;;;;;5753512;28;20047;-81
2023/12/07 05:25:15;;;;;;;14.57;9.15;;;;;;;;;;5757050;28;20059;-81
2023/12/07 05:28:06;;;;;;;13.63;10.43;;;;;;;;;;5771024;28;20425;-80
2023/12/07 05:30:57;;;;;;;17.58;8.68;;;;;;;;;;5756719;28;20525;-80
2023/12/07 05:33:48;;;;;;;19.20;8.45;;;;;;;;;;5757558;28;20127;-81
2023/12/07 05:36:39;;;;;;;15.65;8.55;;;;;;;;;;5773328;28;20083;-81
2023/12/07 05:39:30;;;;;;;18.65;7.47;;;;;;;;;;5771098;28;20051;-81
2023/12/07 05:42:21;;;;;;;14.57;7.50;;;;;;;;;;5775336;28;20052;-80
2023/12/07 05:45:12;;;;;;;13.38;7.18;;;;;;;;;;5776485;28;20055;-81
2023/12/07 05:48:03;;;;;;;16.17;8.05;;;;;;;;;;5776293;28;20054;-80
2023/12/07 05:50:54;;;;;;;21.65;10.43;;;;;;;;;;5777591;28;20425;-80
2023/12/07 05:53:45;;;;;;;37.30;12.70;;;;;;;;;;5779963;28;20134;-80
2023/12/07 05:56:35;;;;;;;24.63;10.15;;;;;;;;;;5778151;28;20040;-80
2023/12/07 05:59:26;;;;;;;21.88;9.70;;;;;;;;;;5781175;28;20059;-81
2023/12/07 06:02:17;;;;;;;23.42;11.23;;;;;;;;;;5781654;28;20071;-81
2023/12/07 06:05:08;;;;;;;28.45;13.88;;;;;;;;;;5777330;28;20417;-80
2023/12/07 06:07:59;;;;;;;33.13;14.15;;;;;;;;;;5767779;28;20131;-80
2023/12/07 06:10:50;;;;;;;31.98;14.07;;;;;;;;;;5744922;28;20043;-80
2023/12/07 06:13:41;;;;;;;40.50;13.70;;;;;;;;;;5766995;28;20055;-81
2023/12/07 06:16:32;;;;;;;54.47;22.23;;;;;;;;;;5751293;28;20055;-80
2023/12/07 06:19:23;;;;;;;58.35;21.95;;;;;;;;;;5767103;28;20202;-80
2023/12/07 06:22:13;;;;;;;38.55;14.32;;;;;;;;;;5752560;28;20048;-81
2023/12/07 06:25:05;;;;;;;15.07;10.60;;;;;;;;;;5766857;28;20048;-80
2023/12/07 06:27:56;;;;;;;25.45;10.18;;;;;;;;;;5752559;28;20052;-80
2023/12/07 06:30:47;;;;;;;19.38;9.88;;;;;;;;;;5766496;28;20047;-80
2023/12/07 06:33:38;;;;;;;22.80;11.43;;;;;;;;;;5750832;28;20043;-80
2023/12/07 06:36:29;;;;;;;23.70;12.13;;;;;;;;;;5766021;28;20072;-81
2023/12/07 06:39:20;;;;;;;21.50;10.15;;;;;;;;;;5766553;28;20379;-81
2023/12/07 06:42:11;;;;;;;32.17;12.15;;;;;;;;;;5751724;28;20055;-80
2023/12/07 06:45:02;;;;;;;17.08;9.50;;;;;;;;;;5766070;28;20430;-80
2023/12/07 06:47:53;;;;;;;23.27;8.45;;;;;;;;;;5752050;28;20044;-81
2023/12/07 06:50:43;;;;;;;23.33;12.38;;;;;;;;;;5750010;28;20062;-80
2023/12/07 06:53:34;;;;;;;22.08;9.98;;;;;;;;;;5766127;28;20591;-81
2023/12/07 06:56:25;;;;;;;24.20;10.43;;;;;;;;;;5766304;28;20054;-80
2023/12/07 06:59:16;;;;;;;21.20;9.85;;;;;;;;;;5751165;28;20075;-80
2023/12/07 07:02:07;;;;;;;19.65;9.75;;;;;;;;;;5765367;28;20048;-80
2023/12/07 07:04:58;;;;;;;19.40;14.13;;;;;;;;;;5752078;28;20077;-81
2023/12/07 07:07:51;;;;;;;23.48;11.82;;;;;;;;;;5765940;28;20085;-80
2023/12/07 07:10:46;;;;;;;18.67;11.38;;;;;;;;;;5765418;28;20051;-81
2023/12/07 07:13:37;;;;;;;14.80;9.10;;;;;;;;;;5751181;28;20051;-81
2023/12/07 07:16:28;;;;;;;24.17;11.52;;;;;;;;;;5765375;28;20048;-81
2023/12/07 07:19:19;;;;;;;31.95;13.98;;;;;;;;;;5750968;28;20485;-81
2023/12/07 07:22:10;;;;;;;20.90;11.75;;;;;;;;;;5765956;28;20465;-80
2023/12/07 07:25:01;;;;;;;16.70;11.57;;;;;;;;;;5765596;28;20063;-80
2023/12/07 07:27:54;;;;;;;19.90;12.20;;;;;;;;;;5765852;28;20051;-80
2023/12/07 07:30:45;;;;;;;26.80;12.77;;;;;;;;;;5764962;28;20399;-80
2023/12/07 07:33:36;;;;;;;25.85;10.32;;;;;;;;;;5765232;28;20051;-80
2023/12/07 07:36:27;;;;;;;21.65;12.15;;;;;;;;;;5765116;28;20134;-80
2023/12/07 07:39:18;;;;;;;19.20;10.52;;;;;;;;;;5751245;28;20063;-80
2023/12/07 07:42:08;;;;;;;21.85;9.25;;;;;;;;;;5766196;28;20063;-80
2023/12/07 07:44:59;;;;;;;24.77;11.25;;;;;;;;;;5749841;28;20055;-80
2023/12/07 07:47:50;;;;;;;18.25;8.55;;;;;;;;;;5765791;28;20067;-81
2023/12/07 07:50:41;;;;;;;30.30;11.05;;;;;;;;;;5750834;28;20050;-80
2023/12/07 07:53:32;;;;;;;21.27;9.38;;;;;;;;;;5765153;28;20052;-80
2023/12/07 07:56:24;;;;;;;35.05;11.57;;;;;;;;;;5750531;28;20052;-80
2023/12/07 07:59:15;;;;;;;28.92;14.40;;;;;;;;;;5765150;28;20055;-81
2023/12/07 08:02:06;;;;;;;23.48;9.27;;;;;;;;;;5748771;28;20155;-80
2023/12/07 08:04:57;;;;;;;14.73;9.18;;;;;;;;;;5749385;28;20051;-80
2023/12/07 08:07:48;;;;;;;25.02;14.05;;;;;;;;;;5750170;28;20055;-80
2023/12/07 08:10:39;;;;;;;36.75;11.73;;;;;;;;;;5764754;28;20043;-81
2023/12/07 08:13:45;;;;;;;26.10;8.38;;;;;;;;;;5764513;28;20058;-81
2023/12/07 08:16:36;;;;;;;14.73;10.63;;;;;;;;;;5768683;28;20055;-80
2023/12/07 08:19:27;;;;;;;17.77;10.98;;;;;;;;;;5768640;28;20071;-80
2023/12/07 08:22:18;;;;;;;12.43;7.65;;;;;;;;;;5768472;28;20052;-80
2023/12/07 08:25:11;;;;;;;18.20;8.07;;;;;;;;;;5753851;28;20052;-80
2023/12/07 08:28:02;;;;;;;17.50;10.25;;;;;;;;;;5753984;28;20111;-80
2023/12/07 08:30:53;;;;;;;26.27;9.13;;;;;;;;;;5768865;28;20071;-80
2023/12/07 08:33:44;;;;;;;21.63;8.73;;;;;;;;;;5753772;28;20055;-80
2023/12/07 08:36:35;;;;;;;22.80;8.98;;;;;;;;;;5768208;28;20107;-80
2023/12/07 08:39:26;;;;;;;13.48;9.60;;;;;;;;;;5768296;28;20058;-80
2023/12/07 08:42:16;;;;;;;18.13;10.20;;;;;;;;;;5758809;28;20441;-80
2023/12/07 08:45:08;;;;;;;23.30;11.85;;;;;;;;;;5768041;28;20450;-80
2023/12/07 08:47:59;;;;;;;16.40;10.88;;;;;;;;;;5768103;28;20047;-80
2023/12/07 08:50:50;;;;;;;15.05;10.48;;;;;;;;;;5767926;28;20047;-80
2023/12/07 08:53:40;;;;;;;12.68;8.18;;;;;;;;;;5753235;28;20047;-80
2023/12/07 08:56:31;;;;;;;12.23;7.50;;;;;;;;;;5767309;28;20099;-80
2023/12/07 08:59:22;;;;;;;15.27;7.53;;;;;;;;;;5767540;28;20050;-80
2023/12/07 09:02:14;;;;;;;24.70;11.85;;;;;;;;;;5767589;28;20051;-80
2023/12/07 09:05:13;;;;;;;;;;;;;;;;;;5775992;28;20157;-79
2023/12/07 09:08:04;;;;;;;18.90;9.85;;;;;;;;;;5794537;28;19929;-79
2023/12/07 09:10:54;;;;;;;16.73;7.57;;;;;;;;;;5772523;28;20425;-80
2023/12/07 09:13:45;;;;;;;11.95;8.57;;;;;;;;;;5774955;28;20090;-80
2023/12/07 09:16:44;;;;;;;19.02;8.50;;;;;;;;;;5790676;28;20078;-80
2023/12/07 09:19:35;;;;;;;;;;;;;;;;;;5771253;28;20389;-80
2023/12/07 09:22:26;;;;;;;12.70;6.88;;;;;;;;;;5775732;28;20296;-80
2023/12/07 09:25:28;;;;;;;16.45;7.90;;;;;;;;;;5772134;28;20457;-80
2023/12/07 09:28:19;;;;;;;15.27;6.47;;;;;;;;;;5772630;28;20215;-80
2023/12/07 09:31:09;;;;;;;12.02;7.78;;;;;;;;;;5777822;28;20050;-79
2023/12/07 09:34:00;;;;;;;13.63;10.73;;;;;;;;;;5746379;28;20051;-79
2023/12/07 09:37:09;;;;;;;17.00;10.88;;;;;;;;;;5746538;29;20422;-80
2023/12/07 09:40:01;;;;;;;18.05;10.63;;;;;;;;;;5782927;28;20054;-80
2023/12/07 09:42:52;;;;;;;12.02;8.20;;;;;;;;;;5763822;28;20051;-80
2023/12/07 09:45:45;;;;;;;20.38;8.95;;;;;;;;;;5756882;28;20409;-79
2023/12/07 09:48:39;;;;;;;17.27;11.50;;;;;;;;;;5770664;28;20125;-79
2023/12/07 09:51:33;;;;;;;10.82;7.10;;;;;;;;;;5945667;23;20234;-78
2023/12/07 09:54:26;;;;;;;15.98;8.50;;;;;;;;;;5801728;28;20045;-78
2023/12/07 09:57:17;;;;;;;13.57;9.63;;;;;;;;;;5813993;28;20060;-78
2023/12/07 10:00:10;;;;;;;18.80;13.90;;;;;;;;;;5796639;28;20054;-78
2023/12/07 10:03:00;;;;;;;23.95;10.88;;;;;;;;;;5819048;28;20050;-78
2023/12/07 10:05:59;;;;;;;19.27;7.63;;;;;;;;;;5819219;28;20042;-78
2023/12/07 10:09:03;;;;;;;24.02;16.33;;;;;;;;;;5810391;28;20047;-78
2023/12/07 10:12:04;;;;;;;20.20;9.35;;;;;;;;;;5809976;28;20118;-78
2023/12/07 10:14:54;;;;;;;8.25;7.50;;;;;;;;;;5800531;28;20454;-78
2023/12/07 10:17:50;;;;;;;15.00;8.82;;;;;;;;;;5811167;28;20065;-78
2023/12/07 10:20:45;;;;;;;11.88;6.03;;;;;;;;;;5798960;28;20510;-78
2023/12/07 10:23:38;;;;;;;10.55;8.35;;;;;;;;;;5817009;28;20054;-78
2023/12/07 10:26:30;;;;;;;16.73;6.60;;;;;;;;;;5816959;28;20043;-78
2023/12/07 10:29:23;;;;;;;9.15;7.22;;;;;;;;;;5799604;28;20071;-78
2023/12/07 10:32:22;;;;;;;9.98;6.95;;;;;;;;;;5814530;28;20042;-78
2023/12/07 10:35:13;;;;;;;10.85;5.40;;;;;;;;;;5818168;28;20050;-78
2023/12/07 10:38:04;;;;;;;11.05;5.88;;;;;;;;;;5810239;28;20058;-78
2023/12/07 10:41:06;;;;;;;14.98;7.30;;;;;;;;;;5809882;28;20129;-78
2023/12/07 10:44:03;;;;;;;21.17;6.43;;;;;;;;;;5816079;28;20042;-78
2023/12/07 10:46:58;;;;;;;12.15;6.07;;;;;;;;;;5815259;28;20062;-78
2023/12/07 10:49:55;;;;;;;10.65;5.70;;;;;;;;;;5815669;28;20181;-78
2023/12/07 10:52:54;;;;;;;7.88;5.55;;;;;;;;;;5815821;28;20066;-78
2023/12/07 10:55:52;;;;;;;;;;;;;;;;;;5800053;28;20116;-78
2023/12/07 10:58:45;;;;;;;6.93;4.70;;;;;;;;;;5815868;28;19926;-78
2023/12/07 11:01:40;;;;;;;9.18;4.53;;;;;;;;;;5799914;28;20050;-78
2023/12/07 11:04:31;;;;;;;12.52;7.68;;;;;;;;;;5815363;28;20047;-78
2023/12/07 11:07:27;;;;;;;15.30;8.02;;;;;;;;;;5815706;28;20069;-78
2023/12/07 11:10:47;;;;;;;8.10;4.70;;;;;;;;;;5800210;28;20054;-78
2023/12/07 11:13:38;;;;;;;6.10;4.30;;;;;;;;;;5810230;28;20049;-78
2023/12/07 11:16:35;;;;;;;12.07;7.40;;;;;;;;;;5815188;28;20112;-78
2023/12/07 11:19:41;;;;;;;8.05;7.30;;;;;;;;;;5815266;28;20124;-78
2023/12/07 11:22:32;;;;;;;7.35;5.40;;;;;;;;;;5816219;28;20057;-78
2023/12/07 11:25:24;;;;;;;7.80;5.38;;;;;;;;;;5815139;28;20042;-78
2023/12/07 11:28:15;;;;;;;7.95;4.88;;;;;;;;;;5815109;28;20046;-78
2023/12/07 11:31:07;;;;;;;12.15;6.70;;;;;;;;;;5798872;28;20133;-78
2023/12/07 11:34:07;;;;;;;9.15;6.03;;;;;;;;;;5815363;28;20042;-78
2023/12/07 11:36:58;;;;;;;16.05;6.95;;;;;;;;;;5815317;28;20408;-78
2023/12/07 11:39:50;;;;;;;9.95;6.30;;;;;;;;;;5816379;28;20049;-78
2023/12/07 11:42:43;;;;;;;10.02;7.32;;;;;;;;;;5814665;28;20038;-78
2023/12/07 11:45:54;;;;;;;14.18;7.10;;;;;;;;;;5798933;28;20384;-78
2023/12/07 11:48:48;;;;;;;8.43;7.35;;;;;;;;;;5830740;28;20061;-78
2023/12/07 11:51:39;;;;;;;6.30;4.07;;;;;;;;;;5814455;28;20334;-78
2023/12/07 11:54:31;;;;;;;12.63;5.18;;;;;;;;;;5815927;28;20061;-78
2023/12/07 11:57:22;;;;;;;12.80;5.75;;;;;;;;;;5815321;28;20042;-78
2023/12/07 12:00:14;;;;;;;11.60;6.10;;;;;;;;;;5815178;28;20144;-78
2023/12/07 12:03:06;;;;;;;12.35;5.57;;;;;;;;;;5815337;28;20056;-78
2023/12/07 12:05:57;;;;;;;11.15;7.30;;;;;;;;;;5817114;28;20050;-78
2023/12/07 12:08:48;;;;;;;4.82;4.38;;;;;;;;;;5783271;28;20445;-78
2023/12/07 12:11:47;;;;;;;8.90;7.35;;;;;;;;;;5815366;28;20046;-78
2023/12/07 12:14:38;;;;;;;18.02;9.07;;;;;;;;;;5815069;28;20044;-78
2023/12/07 12:17:29;;;;;;;16.05;9.20;;;;;;;;;;5815492;28;20053;-78
2023/12/07 12:20:19;;;;;;;17.00;6.97;;;;;;;;;;5816538;28;20050;-78
2023/12/07 12:23:10;;;;;;;13.02;7.85;;;;;;;;;;5816091;28;20060;-78
2023/12/07 12:26:02;;;;;;;14.38;7.68;;;;;;;;;;5815244;28;20135;-78
2023/12/07 12:28:52;;;;;;;31.95;15.88;;;;;;;;;;5816910;28;20050;-78
2023/12/07 12:31:44;;;;;;;25.85;14.13;;;;;;;;;;5815079;28;20046;-78
2023/12/07 12:34:35;;;;;;;26.23;15.73;;;;;;;;;;5815053;28;20519;-78
2023/12/07 12:37:26;;;;;;;29.08;12.77;;;;;;;;;;5816405;28;20046;-78
2023/12/07 12:40:19;;;;;;;23.52;14.43;;;;;;;;;;5816315;28;20058;-78
2023/12/07 12:43:10;;;;;;;13.13;8.45;;;;;;;;;;5830861;28;20085;-78
2023/12/07 12:46:01;;;;;;;18.27;7.78;;;;;;;;;;5815293;28;20077;-78
2023/12/07 12:48:59;;;;;;;11.48;7.53;;;;;;;;;;5815209;28;20057;-78
2023/12/07 12:51:49;;;;;;;17.52;8.35;;;;;;;;;;5799081;28;20043;-78
2023/12/07 12:54:43;;;;;;;15.40;7.35;;;;;;;;;;5815983;28;20408;-78
2023/12/07 12:57:36;;;;;;;6.75;4.70;;;;;;;;;;5814620;28;20157;-78
2023/12/07 13:00:27;;;;;;;10.70;5.32;;;;;;;;;;5817362;28;20385;-78
2023/12/07 13:03:18;;;;;;;9.90;5.97;;;;;;;;;;5818789;28;20050;-78
2023/12/07 13:06:08;;;;;;;9.23;5.13;;;;;;;;;;5820476;28;20057;-78
2023/12/07 13:08:59;;;;;;;11.23;7.03;;;;;;;;;;5819002;28;20070;-78
2023/12/07 13:11:50;;;;;;;7.90;6.28;;;;;;;;;;5818813;28;20053;-78
2023/12/07 13:14:41;;;;;;;11.23;7.75;;;;;;;;;;5818363;28;20054;-78
2023/12/07 13:17:40;;;;;;;19.10;7.68;;;;;;;;;;5818556;28;20046;-78
2023/12/07 13:20:31;;;;;;;14.68;8.93;;;;;;;;;;5818521;28;20057;-78
2023/12/07 13:23:39;;;;;;;21.33;11.02;;;;;;;;;;5818623;28;20198;-78
2023/12/07 13:26:30;;;;;;;23.98;11.27;;;;;;;;;;5818282;28;20053;-78
2023/12/07 13:29:24;;;;;;;25.33;11.57;;;;;;;;;;5818336;28;20061;-78
2023/12/07 13:32:26;;;;;;;25.85;13.70;;;;;;;;;;5818555;28;20046;-78
2023/12/07 13:35:17;;;;;;;28.83;12.43;;;;;;;;;;5818259;28;20054;-78
2023/12/07 13:38:08;;;;;;;22.33;10.75;;;;;;;;;;5818391;28;20050;-78
2023/12/07 13:40:59;;;;;;;19.10;9.52;;;;;;;;;;5819930;28;20507;-78
2023/12/07 13:43:50;;;;;;;23.67;14.27;;;;;;;;;;5810405;28;20051;-78
2023/12/07 13:46:42;;;;;;;29.33;11.95;;;;;;;;;;5795538;28;20047;-78
2023/12/07 13:49:33;;;;;;;16.35;12.40;;;;;;;;;;5794009;28;20050;-78
2023/12/07 13:52:25;;;;;;;23.63;11.98;;;;;;;;;;5795117;28;20051;-78
2023/12/07 13:55:16;;;;;;;19.58;10.40;;;;;;;;;;5795105;28;20051;-78
2023/12/07 13:58:07;;;;;;;22.38;11.00;;;;;;;;;;5794818;28;20061;-78
2023/12/07 14:00:58;;;;;;;14.98;10.18;;;;;;;;;;5795720;28;20504;-78
2023/12/07 14:03:49;;;;;;;20.30;12.02;;;;;;;;;;5796397;28;20042;-78
2023/12/07 14:06:39;;;;;;;19.27;11.35;;;;;;;;;;5795031;28;20050;-78
2023/12/07 14:09:30;;;;;;;18.45;12.48;;;;;;;;;;5795060;28;20046;-78
2023/12/07 14:12:21;;;;;;;17.42;10.52;;;;;;;;;;5794616;28;20062;-78
2023/12/07 14:15:12;;;;;;;22.65;13.50;;;;;;;;;;5795004;28;20416;-78
2023/12/07 14:18:03;;;;;;;17.65;12.48;;;;;;;;;;5794979;28;20066;-78
2023/12/07 14:20:54;;;;;;;32.42;17.38;;;;;;;;;;5795687;28;20046;-78
2023/12/07 14:24:03;;;;;;;39.90;22.20;;;;;;;;;;5794235;28;20043;-78
2023/12/07 14:26:54;;;;;;;29.92;18.05;;;;;;;;;;5795208;28;20058;-78
2023/12/07 14:29:46;;;;;;;54.65;18.83;;;;;;;;;;5794386;28;20054;-78
2023/12/07 14:32:37;;;;;;;33.88;16.95;;;;;;;;;;5794165;28;20523;-78
2023/12/07 14:35:28;;;;;;;28.73;18.52;;;;;;;;;;5794392;28;20053;-78
2023/12/07 14:38:19;;;;;;;24.33;14.07;;;;;;;;;;5795532;28;20047;-78
2023/12/07 14:41:12;;;;;;;35.65;13.23;;;;;;;;;;5795319;28;20046;-78
2023/12/07 14:44:03;;;;;;;31.35;14.82;;;;;;;;;;5778485;28;20055;-78
2023/12/07 14:46:53;;;;;;;24.33;13.77;;;;;;;;;;5795826;28;20051;-78
2023/12/07 14:49:44;;;;;;;29.77;15.43;;;;;;;;;;5795438;28;20068;-78
2023/12/07 14:52:35;;;;;;;41.05;19.60;;;;;;;;;;5793852;28;20039;-78
2023/12/07 14:55:26;;;;;;;26.60;19.52;;;;;;;;;;5795056;28;20070;-78
2023/12/07 14:58:17;;;;;;;30.38;16.90;;;;;;;;;;5793694;28;20130;-78
2023/12/07 15:01:08;;;;;;;32.90;15.48;;;;;;;;;;5793794;28;20141;-78
2023/12/07 15:03:59;;;;;;;30.55;18.73;;;;;;;;;;5793922;28;20051;-78
2023/12/07 15:06:50;;;;;;;22.90;14.05;;;;;;;;;;5795064;28;20050;-78
2023/12/07 15:09:41;;;;;;;33.55;17.73;;;;;;;;;;5793430;28;20078;-78
2023/12/07 15:12:32;;;;;;;29.80;16.25;;;;;;;;;;5793284;28;20046;-78
2023/12/07 15:15:23;;;;;;;26.42;16.17;;;;;;;;;;5777872;28;20412;-78
2023/12/07 15:18:14;;;;;;;40.72;15.52;;;;;;;;;;5793219;28;20085;-78
2023/12/07 15:21:06;;;;;;;32.42;17.67;;;;;;;;;;5794686;28;20493;-78
2023/12/07 15:23:59;;;;;;;29.60;14.82;;;;;;;;;;5792977;28;20197;-78
2023/12/07 15:26:51;;;;;;;25.10;15.75;;;;;;;;;;5793615;28;20047;-77
2023/12/07 15:29:41;;;;;;;41.58;17.02;;;;;;;;;;5793114;28;20567;-78
2023/12/07 15:32:32;;;;;;;27.48;18.90;;;;;;;;;;5793110;28;20065;-78
2023/12/07 15:35:23;;;;;;;29.80;17.48;;;;;;;;;;5792961;28;20049;-78
2023/12/07 15:38:14;;;;;;;40.08;23.67;;;;;;;;;;5793152;28;20086;-78
2023/12/07 15:41:05;;;;;;;43.13;22.25;;;;;;;;;;5809168;28;20053;-78
2023/12/07 15:43:56;;;;;;;34.15;22.52;;;;;;;;;;5793620;28;20050;-78
2023/12/07 15:46:47;;;;;;;29.65;16.02;;;;;;;;;;5777040;28;20043;-78
2023/12/07 15:49:38;;;;;;;37.08;20.27;;;;;;;;;;5793026;28;20500;-78
2023/12/07 15:52:29;;;;;;;47.38;22.77;;;;;;;;;;5776937;28;20519;-77
2023/12/07 15:55:19;;;;;;;49.90;23.45;;;;;;;;;;5794335;28;20051;-78
2023/12/07 15:58:11;;;;;;;45.30;25.42;;;;;;;;;;5776859;28;20050;-78
2023/12/07 16:01:03;;;;;;;46.33;24.20;;;;;;;;;;5794417;28;20428;-78
2023/12/07 16:03:53;;;;;;;39.25;20.13;;;;;;;;;;5793188;28;20042;-77
2023/12/07 16:06:44;;;;;;;48.17;20.27;;;;;;;;;;5792560;28;20109;-78
2023/12/07 16:09:37;;;;;;;36.88;17.73;;;;;;;;;;5792651;28;20416;-78
2023/12/07 16:12:28;;;;;;;33.78;18.67;;;;;;;;;;5792699;28;20046;-78
2023/12/07 16:15:19;;;;;;;40.80;20.10;;;;;;;;;;5792802;28;20070;-78
2023/12/07 16:18:10;;;;;;;37.47;15.50;;;;;;;;;;5792516;28;20055;-78
2023/12/07 16:21:01;;;;;;;36.63;18.42;;;;;;;;;;5793933;28;20392;-78
2023/12/07 16:23:52;;;;;;;26.13;17.80;;;;;;;;;;5776794;28;20053;-78
2023/12/07 16:26:42;;;;;;;32.28;19.67;;;;;;;;;;5792325;28;20051;-78
2023/12/07 16:29:33;;;;;;;38.55;23.20;;;;;;;;;;5776687;28;20125;-77
2023/12/07 16:32:25;;;;;;;48.05;19.13;;;;;;;;;;5792629;28;20408;-78
2023/12/07 16:35:16;;;;;;;31.42;18.00;;;;;;;;;;5795403;28;20419;-78
2023/12/07 16:38:07;;;;;;;32.60;15.93;;;;;;;;;;5780609;28;20065;-78
2023/12/07 16:40:58;;;;;;;47.33;24.40;;;;;;;;;;5797120;28;20047;-77
2023/12/07 16:43:49;;;;;;;54.35;24.10;;;;;;;;;;5796697;28;20054;-77
2023/12/07 16:46:42;;;;;;;64.45;24.30;;;;;;;;;;5796418;28;20061;-78
2023/12/07 16:49:33;;;;;;;56.88;24.20;;;;;;;;;;5796554;28;20042;-78
2023/12/07 16:52:24;;;;;;;47.28;18.25;;;;;;;;;;5797907;28;20062;-78